createdAt,value
2018-01-13T00:00:06.313Z,77.00
2018-01-13T00:02:32.907Z,71.47
2018-01-13T00:04:59.519Z,74.70
2018-01-13T00:07:26.119Z,73.43
2018-01-13T00:09:52.727Z,73.33
2018-01-13T00:12:19.422Z,71.60
2018-01-13T00:14:46.100Z,71.30
2018-01-13T00:17:12.728Z,72.63
2018-01-13T00:19:39.335Z,68.77
2018-01-13T00:22:05.935Z,73.60
2018-01-13T00:24:32.531Z,62.47
2018-01-13T00:26:59.149Z,59.40
2018-01-13T00:29:25.743Z,64.97
2018-01-13T00:31:52.395Z,71.23
2018-01-13T00:34:19.072Z,69.43
2018-01-13T00:36:45.683Z,70.30
2018-01-13T00:39:12.284Z,70.97
2018-01-13T00:41:38.895Z,66.57
2018-01-13T00:44:05.492Z,79.13
2018-01-13T00:46:32.146Z,66.13
2018-01-13T00:48:58.739Z,62.60
2018-01-13T00:51:25.350Z,68.43
2018-01-13T00:53:51.929Z,68.17
2018-01-13T00:56:18.540Z,60.30
2018-01-13T00:58:45.136Z,62.40
2018-01-13T01:01:11.731Z,62.87
2018-01-13T01:03:38.339Z,60.60
2018-01-13T01:06:04.955Z,64.00
2018-01-13T01:08:31.552Z,57.60
2018-01-13T01:10:58.189Z,60.90
2018-01-13T01:13:24.779Z,62.70
2018-01-13T01:15:51.379Z,68.40
2018-01-13T01:18:17.983Z,61.77
2018-01-13T01:20:44.580Z,57.33
2018-01-13T01:23:11.185Z,59.30
2018-01-13T01:25:37.801Z,60.37
2018-01-13T01:28:04.400Z,63.10
2018-01-13T01:30:30.995Z,65.37
2018-01-13T01:32:57.691Z,57.43
2018-01-13T01:35:24.291Z,61.83
2018-01-13T01:37:50.884Z,60.70
2018-01-13T01:40:17.503Z,60.50
2018-01-13T01:42:44.107Z,55.97
2018-01-13T01:45:10.702Z,57.33
2018-01-13T01:47:37.311Z,56.00
2018-01-13T01:50:03.916Z,47.50
2018-01-13T01:52:30.511Z,46.60
2018-01-13T01:54:57.479Z,48.37
2018-01-13T01:57:24.075Z,45.17
2018-01-13T01:59:50.679Z,46.80
2018-01-13T02:02:17.289Z,51.97
2018-01-13T02:04:43.880Z,47.43
2018-01-13T02:07:10.480Z,48.37
2018-01-13T02:09:37.087Z,41.37
2018-01-13T02:12:03.686Z,43.23
2018-01-13T02:14:30.283Z,45.57
2018-01-13T02:16:56.896Z,42.57
2018-01-13T02:19:23.497Z,42.43
2018-01-13T02:21:50.100Z,43.13
2018-01-13T02:24:16.755Z,41.60
2018-01-13T02:26:43.358Z,43.07
2018-01-13T02:29:09.955Z,40.37
2018-01-13T02:31:36.620Z,40.30
2018-01-13T02:34:03.163Z,40.20
2018-01-13T02:36:29.767Z,41.73
2018-01-13T02:38:56.428Z,40.90
2018-01-13T02:41:23.027Z,45.37
2018-01-13T02:43:49.643Z,41.90
2018-01-13T02:46:16.271Z,39.00
2018-01-13T02:48:42.876Z,42.07
2018-01-13T02:51:09.476Z,44.37
2018-01-13T02:53:36.088Z,40.97
2018-01-13T02:56:02.691Z,39.07
2018-01-13T02:58:29.295Z,39.53
2018-01-13T03:00:55.895Z,44.23
2018-01-13T03:03:22.500Z,43.63
2018-01-13T03:05:49.095Z,43.57
2018-01-13T03:08:15.704Z,36.33
2018-01-13T03:10:42.303Z,38.27
2018-01-13T03:13:08.903Z,38.37
2018-01-13T03:15:35.511Z,39.00
2018-01-13T03:18:02.107Z,38.93
2018-01-13T03:20:28.709Z,35.87
2018-01-13T03:22:55.343Z,36.23
2018-01-13T03:25:21.946Z,30.77
2018-01-13T03:27:48.551Z,37.63
2018-01-13T03:30:15.175Z,35.83
2018-01-13T03:32:41.775Z,38.17
2018-01-13T03:35:08.382Z,38.47
2018-01-13T03:37:35.035Z,34.37
2018-01-13T03:40:01.635Z,34.23
2018-01-13T03:42:28.235Z,37.70
2018-01-13T03:44:54.860Z,38.50
2018-01-13T03:47:21.455Z,34.57
2018-01-13T03:49:48.055Z,34.47
2018-01-13T03:52:14.959Z,39.10
2018-01-13T03:54:41.555Z,34.77
2018-01-13T03:57:08.155Z,34.10
2018-01-13T03:59:34.787Z,34.03
2018-01-13T04:02:01.383Z,38.00
2018-01-13T04:04:27.983Z,40.03
2018-01-13T04:06:54.595Z,36.40
2018-01-13T04:09:21.199Z,32.90
2018-01-13T04:11:47.799Z,34.97
2018-01-13T04:14:14.419Z,34.40
2018-01-13T04:16:41.019Z,31.60
2018-01-13T04:19:07.615Z,32.93
2018-01-13T04:21:34.224Z,33.57
2018-01-13T04:24:00.838Z,33.57
2018-01-13T04:26:27.419Z,33.47
2018-01-13T04:28:54.033Z,30.83
2018-01-13T04:31:20.627Z,31.90
2018-01-13T04:33:47.222Z,30.47
2018-01-13T04:36:13.855Z,33.80
2018-01-13T04:38:40.457Z,35.13
2018-01-13T04:41:07.052Z,33.67
2018-01-13T04:43:33.976Z,29.90
2018-01-13T04:46:00.575Z,37.77
2018-01-13T04:48:27.178Z,32.30
2018-01-13T04:50:54.084Z,31.57
2018-01-13T04:53:20.683Z,36.17
2018-01-13T04:55:47.283Z,32.80
2018-01-13T04:58:14.225Z,30.33
2018-01-13T05:00:40.823Z,31.93
2018-01-13T05:03:07.429Z,30.83
2018-01-13T05:05:34.043Z,33.07
2018-01-13T05:08:00.636Z,32.00
2018-01-13T05:10:27.235Z,31.37
2018-01-13T05:12:53.855Z,29.23
2018-01-13T05:15:20.451Z,34.60
2018-01-13T05:17:47.051Z,35.00
2018-01-13T05:20:13.659Z,30.63
2018-01-13T05:22:40.275Z,30.10
2018-01-13T05:25:06.880Z,36.57
2018-01-13T05:27:33.824Z,35.70
2018-01-13T05:30:00.420Z,30.43
2018-01-13T05:32:27.022Z,31.67
2018-01-13T05:34:53.627Z,30.30
2018-01-13T05:37:20.231Z,32.90
2018-01-13T05:39:46.839Z,34.87
2018-01-13T05:42:13.474Z,32.13
2018-01-13T05:44:40.076Z,36.50
2018-01-13T05:47:06.675Z,30.20
2018-01-13T05:49:33.327Z,32.13
2018-01-13T05:51:59.911Z,28.63
2018-01-13T05:54:26.507Z,28.83
2018-01-13T05:56:53.115Z,27.97
2018-01-13T05:59:19.712Z,26.00
2018-01-13T06:01:46.359Z,28.40
2018-01-13T06:04:12.956Z,30.33
2018-01-13T06:06:40.555Z,27.30
2018-01-13T06:09:07.152Z,30.87
2018-01-13T06:11:34.144Z,28.73
2018-01-13T06:14:00.754Z,26.20
2018-01-13T06:16:27.352Z,30.47
2018-01-13T06:18:53.960Z,31.00
2018-01-13T06:21:20.567Z,24.90
2018-01-13T06:23:47.171Z,28.87
2018-01-13T06:26:13.813Z,25.37
2018-01-13T06:28:40.411Z,27.87
2018-01-13T06:31:07.007Z,24.63
2018-01-13T06:33:33.616Z,27.53
2018-01-13T06:36:00.216Z,27.70
2018-01-13T06:38:26.819Z,26.50
2018-01-13T06:40:53.439Z,25.43
2018-01-13T06:43:20.040Z,28.13
2018-01-13T06:45:46.644Z,26.50
2018-01-13T06:48:13.259Z,24.83
2018-01-13T06:50:39.860Z,27.97
2018-01-13T06:53:06.454Z,24.07
2018-01-13T06:55:33.066Z,25.90
2018-01-13T06:57:59.662Z,25.90
2018-01-13T07:00:26.268Z,24.43
2018-01-13T07:02:52.971Z,26.83
2018-01-13T07:05:19.600Z,25.43
2018-01-13T07:07:46.183Z,26.40
2018-01-13T07:10:12.816Z,27.60
2018-01-13T07:12:39.411Z,27.10
2018-01-13T07:15:06.018Z,26.80
2018-01-13T07:17:32.623Z,28.43
2018-01-13T07:19:59.223Z,24.80
2018-01-13T07:22:25.879Z,23.10
2018-01-13T07:24:52.779Z,26.10
2018-01-13T07:27:19.375Z,27.83
2018-01-13T07:29:45.975Z,21.67
2018-01-13T07:32:12.670Z,24.90
2018-01-13T07:34:39.283Z,25.43
2018-01-13T07:37:05.888Z,23.00
2018-01-13T07:39:32.782Z,25.63
2018-01-13T07:41:59.388Z,25.50
2018-01-13T07:44:25.982Z,27.07
2018-01-13T07:46:52.591Z,25.80
2018-01-13T07:49:19.202Z,32.47
2018-01-13T07:51:45.791Z,31.87
2018-01-13T07:54:12.392Z,29.50
2018-01-13T07:56:38.988Z,27.10
2018-01-13T07:59:05.615Z,27.30
2018-01-13T08:01:32.227Z,25.53
2018-01-13T08:03:58.823Z,26.83
2018-01-13T08:06:25.447Z,27.23
2018-01-13T08:08:52.052Z,25.50
2018-01-13T08:11:18.680Z,25.23
2018-01-13T08:13:45.282Z,29.13
2018-01-13T08:16:11.879Z,25.33
2018-01-13T08:18:38.484Z,24.37
2018-01-13T08:21:05.083Z,23.83
2018-01-13T08:23:31.695Z,25.13
2018-01-13T08:25:58.295Z,25.20
2018-01-13T08:28:24.906Z,26.63
2018-01-13T08:30:51.503Z,24.17
2018-01-13T08:33:18.103Z,28.20
2018-01-13T08:35:44.727Z,26.53
2018-01-13T08:38:11.324Z,26.27
2018-01-13T08:40:37.928Z,23.03
2018-01-13T08:43:04.533Z,24.20
2018-01-13T08:45:31.144Z,26.93
2018-01-13T08:47:57.735Z,24.97
2018-01-13T08:50:24.336Z,21.83
2018-01-13T08:52:50.940Z,22.37
2018-01-13T08:55:17.548Z,23.07
2018-01-13T08:57:44.149Z,24.67
2018-01-13T09:00:10.783Z,22.93
2018-01-13T09:02:37.383Z,25.57
2018-01-13T09:05:04.011Z,20.73
2018-01-13T09:07:30.611Z,21.20
2018-01-13T09:09:57.211Z,20.43
2018-01-13T09:12:23.828Z,22.93
2018-01-13T09:14:50.434Z,22.40
2018-01-13T09:17:17.060Z,20.40
2018-01-13T09:19:43.731Z,20.53
2018-01-13T09:22:10.331Z,16.60
2018-01-13T09:24:36.962Z,16.97
2018-01-13T09:27:03.561Z,17.80
2018-01-13T09:29:30.160Z,18.87
2018-01-13T09:31:56.775Z,16.07
2018-01-13T09:34:23.371Z,15.20
2018-01-13T09:36:50.011Z,15.40
2018-01-13T09:39:16.620Z,18.57
2018-01-13T09:41:43.233Z,18.60
2018-01-13T09:44:09.820Z,19.47
2018-01-13T09:46:36.419Z,19.40
2018-01-13T09:49:03.331Z,20.30
2018-01-13T09:51:29.931Z,25.63
2018-01-13T09:53:56.535Z,18.00
2018-01-13T09:56:23.135Z,17.20
2018-01-13T09:58:49.736Z,18.80
2018-01-13T10:01:16.348Z,18.03
2018-01-13T10:03:43.020Z,20.13
2018-01-13T10:06:09.550Z,18.50
2018-01-13T10:08:36.159Z,20.50
2018-01-13T10:11:02.755Z,20.40
2018-01-13T10:13:29.383Z,20.63
2018-01-13T10:15:55.988Z,18.30
2018-01-13T10:18:22.595Z,18.70
2018-01-13T10:20:49.203Z,18.40
2018-01-13T10:23:15.809Z,16.10
2018-01-13T10:25:42.707Z,19.67
2018-01-13T10:28:09.307Z,18.10
2018-01-13T10:30:35.913Z,17.20
2018-01-13T10:33:02.516Z,14.00
2018-01-13T10:35:29.115Z,15.70
2018-01-13T10:37:55.728Z,16.67
2018-01-13T10:40:22.332Z,14.13
2018-01-13T10:42:48.960Z,18.80
2018-01-13T10:45:15.573Z,16.40
2018-01-13T10:47:42.185Z,15.23
2018-01-13T10:50:08.783Z,14.30
2018-01-13T10:52:35.375Z,11.70
2018-01-13T10:55:01.975Z,15.00
2018-01-13T10:57:28.579Z,15.63
2018-01-13T10:59:55.176Z,14.67
2018-01-13T11:02:21.791Z,13.10
2018-01-13T11:04:48.389Z,12.70
2018-01-13T11:07:14.983Z,14.00
2018-01-13T11:09:41.585Z,17.00
2018-01-13T11:12:08.183Z,12.07
2018-01-13T11:14:34.791Z,13.90
2018-01-13T11:17:01.398Z,14.57
2018-01-13T11:19:27.990Z,13.80
2018-01-13T11:21:54.584Z,13.27
2018-01-13T11:24:21.177Z,13.80
2018-01-13T11:26:48.699Z,15.67
2018-01-13T11:29:15.408Z,13.40
2018-01-13T11:31:41.909Z,12.10
2018-01-13T11:34:08.499Z,13.60
2018-01-13T11:36:35.108Z,12.90
2018-01-13T11:39:02.035Z,14.60
2018-01-13T11:41:28.619Z,13.70
2018-01-13T11:43:55.220Z,12.53
2018-01-13T11:46:21.823Z,12.57
2018-01-13T11:48:48.423Z,12.73
2018-01-13T11:51:15.059Z,11.30
2018-01-13T11:53:41.652Z,12.40
2018-01-13T11:56:08.247Z,11.03
2018-01-13T11:58:34.848Z,11.40
2018-01-13T12:01:01.443Z,10.40
2018-01-13T12:03:28.051Z,14.90
2018-01-13T12:05:54.647Z,12.37
2018-01-13T12:08:21.248Z,11.50
2018-01-13T12:10:47.858Z,12.47
2018-01-13T12:13:14.443Z,11.73
2018-01-13T12:15:42.020Z,13.23
2018-01-13T12:18:08.626Z,10.10
2018-01-13T12:20:35.224Z,11.80
2018-01-13T12:23:01.832Z,10.60
2018-01-13T12:25:28.432Z,12.07
2018-01-13T12:27:55.039Z,14.60
2018-01-13T12:30:21.641Z,12.73
2018-01-13T12:32:48.253Z,11.60
2018-01-13T12:35:14.861Z,8.47
2018-01-13T12:37:41.451Z,11.87
2018-01-13T12:40:08.055Z,8.00
2018-01-13T12:42:34.643Z,9.13
2018-01-13T12:45:01.345Z,20.23
2018-01-13T12:47:27.932Z,12.97
2018-01-13T12:49:54.530Z,15.40
2018-01-13T12:52:21.179Z,18.50
2018-01-13T12:54:47.767Z,12.73
2018-01-13T12:57:14.354Z,15.17
2018-01-13T12:59:40.955Z,10.93
2018-01-13T13:02:09.504Z,12.70
2018-01-13T13:04:36.164Z,13.83
2018-01-13T13:07:02.764Z,11.17
2018-01-13T13:09:29.364Z,12.27
2018-01-13T13:11:55.964Z,8.80
2018-01-13T13:14:22.555Z,11.13
2018-01-13T13:16:49.171Z,12.60
2018-01-13T13:19:15.764Z,9.43
2018-01-13T13:21:42.359Z,11.50
2018-01-13T13:24:08.958Z,12.90
2018-01-13T13:26:35.547Z,12.27
2018-01-13T13:29:02.192Z,14.97
2018-01-13T13:31:28.811Z,9.70
2018-01-13T13:33:55.412Z,11.10
2018-01-13T13:36:22.017Z,14.53
2018-01-13T13:38:48.619Z,12.77
2018-01-13T13:41:15.231Z,11.73
2018-01-13T13:43:41.876Z,11.00
2018-01-13T13:46:08.455Z,11.47
2018-01-13T13:48:35.077Z,10.63
2018-01-13T13:51:01.652Z,11.43
2018-01-13T13:53:28.250Z,9.67
2018-01-13T13:55:54.849Z,11.47
2018-01-13T13:58:21.443Z,10.77
2018-01-13T14:00:48.043Z,11.30
2018-01-13T14:03:14.644Z,11.23
2018-01-13T14:05:41.254Z,11.43
2018-01-13T14:08:07.847Z,11.37
2018-01-13T14:10:34.448Z,13.43
2018-01-13T14:13:01.056Z,15.47
2018-01-13T14:15:27.670Z,10.07
2018-01-13T14:17:54.337Z,12.23
2018-01-13T14:20:20.931Z,10.73
2018-01-13T14:22:47.568Z,12.63
2018-01-13T14:25:14.195Z,11.40
2018-01-13T14:27:40.830Z,13.47
2018-01-13T14:30:07.473Z,13.20
2018-01-13T14:32:34.068Z,11.50
2018-01-13T14:35:00.678Z,14.30
2018-01-13T14:37:27.312Z,12.00
2018-01-13T14:39:54.223Z,12.40
2018-01-13T14:42:20.831Z,11.47
2018-01-13T14:44:47.420Z,13.17
2018-01-13T14:47:14.057Z,14.13
2018-01-13T14:49:40.635Z,15.50
2018-01-13T14:52:07.320Z,14.93
2018-01-13T14:54:33.936Z,14.03
2018-01-13T14:57:00.553Z,34.50
2018-01-13T14:59:27.195Z,16.20
2018-01-13T15:01:53.783Z,14.27
2018-01-13T15:04:20.708Z,15.47
2018-01-13T15:06:47.381Z,15.00
2018-01-13T15:09:14.095Z,12.47
2018-01-13T15:11:40.690Z,14.60
2018-01-13T15:14:07.291Z,14.80
2018-01-13T15:16:33.900Z,14.83
2018-01-13T15:19:00.496Z,18.13
2018-01-13T15:21:27.095Z,17.33
2018-01-13T15:23:53.703Z,20.47
2018-01-13T15:26:20.299Z,18.50
2018-01-13T15:28:46.907Z,15.13
2018-01-13T15:31:13.511Z,19.20
2018-01-13T15:33:40.117Z,20.07
2018-01-13T15:36:06.719Z,19.30
2018-01-13T15:38:33.346Z,17.73
2018-01-13T15:41:00.248Z,18.60
2018-01-13T15:43:26.867Z,16.30
2018-01-13T15:45:53.463Z,16.70
2018-01-13T15:48:20.075Z,17.20
2018-01-13T15:50:46.669Z,14.20
2018-01-13T15:53:13.354Z,20.03
2018-01-13T15:55:40.057Z,22.20
2018-01-13T15:58:06.655Z,17.10
2018-01-13T16:00:33.264Z,19.97
2018-01-13T16:02:59.869Z,14.87
2018-01-13T16:05:26.487Z,18.90
2018-01-13T16:07:53.088Z,22.20
2018-01-13T16:10:19.695Z,18.50
2018-01-13T16:12:46.299Z,27.90
2018-01-13T16:15:12.898Z,16.07
2018-01-13T16:17:39.498Z,20.13
2018-01-13T16:20:06.179Z,19.50
2018-01-13T16:22:33.067Z,19.87
2018-01-13T16:24:59.671Z,15.33
2018-01-13T16:27:26.267Z,16.57
2018-01-13T16:29:52.859Z,15.33
2018-01-13T16:32:19.474Z,23.60
2018-01-13T16:34:46.083Z,74.00
2018-01-13T16:37:12.685Z,34.53
2018-01-13T16:39:39.299Z,21.03
2018-01-13T16:42:05.926Z,19.40
2018-01-13T16:44:32.535Z,140.40
2018-01-13T16:46:59.144Z,25.30
2018-01-13T16:49:25.747Z,16.80
2018-01-13T16:51:52.351Z,18.67
2018-01-13T16:54:18.947Z,21.53
2018-01-13T16:56:45.563Z,20.33
2018-01-13T16:59:12.163Z,17.50
2018-01-13T17:01:38.763Z,17.60
2018-01-13T17:04:05.363Z,22.07
2018-01-13T17:06:31.959Z,19.97
2018-01-13T17:08:58.569Z,20.60
2018-01-13T17:11:25.167Z,21.50
2018-01-13T17:13:52.060Z,21.63
2018-01-13T17:16:18.663Z,21.50
2018-01-13T17:18:45.283Z,25.07
2018-01-13T17:21:11.891Z,17.80
2018-01-13T17:23:38.500Z,17.67
2018-01-13T17:26:05.112Z,19.20
2018-01-13T17:28:31.847Z,18.70
2018-01-13T17:30:58.460Z,15.37
2018-01-13T17:33:25.059Z,19.83
2018-01-13T17:35:51.660Z,18.90
2018-01-13T17:38:18.283Z,19.60
2018-01-13T17:40:44.875Z,23.87
2018-01-13T17:43:11.483Z,26.50
2018-01-13T17:45:38.084Z,18.17
2018-01-13T17:48:04.701Z,15.10
2018-01-13T17:50:31.307Z,17.87
2018-01-13T17:52:57.904Z,90.17
2018-01-13T17:55:24.528Z,33.47
2018-01-13T17:57:51.135Z,19.10
2018-01-13T18:00:17.735Z,16.87
2018-01-13T18:02:44.340Z,16.43
2018-01-13T18:05:10.951Z,16.20
2018-01-13T18:07:37.548Z,16.87
2018-01-13T18:10:04.143Z,17.10
2018-01-13T18:12:30.747Z,18.43
2018-01-13T18:14:57.348Z,19.90
2018-01-13T18:17:23.955Z,20.60
2018-01-13T18:19:50.555Z,18.13
2018-01-13T18:22:17.165Z,19.40
2018-01-13T18:24:43.776Z,19.43
2018-01-13T18:27:10.375Z,19.90
2018-01-13T18:29:36.995Z,19.57
2018-01-13T18:32:03.587Z,21.87
2018-01-13T18:34:30.191Z,23.33
2018-01-13T18:36:56.791Z,19.77
2018-01-13T18:39:23.416Z,19.33
2018-01-13T18:41:50.020Z,21.70
2018-01-13T18:44:16.619Z,22.10
2018-01-13T18:46:43.219Z,19.60
2018-01-13T18:49:09.816Z,21.03
2018-01-13T18:51:36.427Z,27.30
2018-01-13T18:54:03.027Z,26.40
2018-01-13T18:56:29.636Z,27.33
2018-01-13T18:58:56.237Z,17.23
2018-01-13T19:01:22.837Z,19.40
2018-01-13T19:03:49.495Z,22.10
2018-01-13T19:06:16.076Z,27.27
2018-01-13T19:08:42.952Z,22.60
2018-01-13T19:11:09.552Z,19.53
2018-01-13T19:13:36.153Z,19.00
2018-01-13T19:16:02.760Z,19.00
2018-01-13T19:18:29.364Z,18.20
2018-01-13T19:20:56.017Z,19.47
2018-01-13T19:23:22.580Z,19.77
2018-01-13T19:25:49.207Z,16.37
2018-01-13T19:28:15.811Z,18.30
2018-01-13T19:30:42.415Z,18.70
2018-01-13T19:33:09.024Z,21.67
2018-01-13T19:35:35.635Z,22.07
2018-01-13T19:38:02.244Z,15.97
2018-01-13T19:40:28.848Z,17.33
2018-01-13T19:42:55.452Z,15.40
2018-01-13T19:45:22.156Z,18.67
2018-01-13T19:47:48.743Z,19.30
2018-01-13T19:50:15.352Z,18.67
2018-01-13T19:52:41.957Z,17.90
2018-01-13T19:55:08.558Z,19.40
2018-01-13T19:57:35.214Z,16.83
2018-01-13T20:00:01.775Z,18.77
2018-01-13T20:02:28.380Z,20.50
2018-01-13T20:04:54.979Z,19.63
2018-01-13T20:07:21.583Z,27.83
2018-01-13T20:09:48.191Z,22.10
2018-01-13T20:12:14.809Z,21.60
2018-01-13T20:14:41.417Z,18.67
2018-01-13T20:17:08.015Z,19.23
2018-01-13T20:19:34.616Z,22.67
2018-01-13T20:22:01.230Z,25.83
2018-01-13T20:24:27.827Z,38.73
2018-01-13T20:26:54.736Z,23.03
2018-01-13T20:29:21.351Z,22.47
2018-01-13T20:31:47.939Z,19.30
2018-01-13T20:34:14.549Z,22.97
2018-01-13T20:36:41.151Z,24.03
2018-01-13T20:39:07.760Z,22.20
2018-01-13T20:41:34.371Z,20.50
2018-01-13T20:44:00.979Z,16.70
2018-01-13T20:46:27.579Z,22.87
2018-01-13T20:48:54.180Z,22.27
2018-01-13T20:51:20.788Z,23.23
2018-01-13T20:53:47.407Z,24.43
2018-01-13T20:56:14.035Z,29.10
2018-01-13T20:58:40.635Z,27.70
2018-01-13T21:01:07.547Z,23.03
2018-01-13T21:03:34.143Z,20.23
2018-01-13T21:06:00.748Z,18.80
2018-01-13T21:08:27.359Z,19.77
2018-01-13T21:10:53.956Z,19.80
2018-01-13T21:13:20.563Z,18.50
2018-01-13T21:15:47.164Z,20.53
2018-01-13T21:18:13.779Z,19.13
2018-01-13T21:20:40.382Z,20.80
2018-01-13T21:23:06.976Z,19.80
2018-01-13T21:25:33.579Z,16.47
2018-01-13T21:28:00.179Z,19.50
2018-01-13T21:30:26.780Z,17.80
2018-01-13T21:32:53.383Z,17.70
2018-01-13T21:35:19.995Z,20.33
2018-01-13T21:37:46.604Z,17.20
2018-01-13T21:40:13.202Z,15.00
2018-01-13T21:42:40.675Z,16.43
2018-01-13T21:45:07.291Z,18.40
2018-01-13T21:47:33.894Z,18.40
2018-01-13T21:50:00.518Z,20.63
2018-01-13T21:52:27.128Z,17.17
2018-01-13T21:54:53.727Z,17.27
2018-01-13T21:57:20.372Z,18.53
2018-01-13T21:59:47.099Z,22.03
2018-01-13T22:02:13.719Z,19.43
2018-01-13T22:04:40.331Z,16.90
2018-01-13T22:07:06.936Z,18.23
2018-01-13T22:09:33.556Z,18.00
2018-01-13T22:12:00.180Z,17.80
2018-01-13T22:14:26.788Z,18.27
2018-01-13T22:16:53.391Z,15.83
2018-01-13T22:19:20.002Z,17.63
2018-01-13T22:21:46.608Z,18.90
2018-01-13T22:24:13.211Z,16.47
2018-01-13T22:26:39.812Z,23.10
2018-01-13T22:29:06.407Z,16.67
2018-01-13T22:31:33.011Z,16.50
2018-01-13T22:33:59.652Z,18.13
2018-01-13T22:36:26.254Z,18.33
2018-01-13T22:38:52.873Z,18.57
2018-01-13T22:41:19.484Z,23.00
2018-01-13T22:43:46.078Z,25.57
2018-01-13T22:46:12.691Z,25.37
2018-01-13T22:48:39.292Z,25.87
2018-01-13T22:51:05.919Z,29.40
2018-01-13T22:53:32.543Z,22.53
2018-01-13T22:55:59.154Z,21.10
2018-01-13T22:58:25.751Z,20.80
2018-01-13T23:00:55.187Z,19.00
2018-01-13T23:03:21.811Z,18.30
2018-01-13T23:05:48.410Z,20.97
2018-01-13T23:08:15.011Z,19.40
2018-01-13T23:10:41.607Z,18.63
2018-01-13T23:13:08.217Z,16.53
2018-01-13T23:15:35.019Z,18.07
2018-01-13T23:18:01.619Z,17.57
2018-01-13T23:20:28.227Z,16.80
2018-01-13T23:22:54.827Z,18.47
2018-01-13T23:25:21.427Z,20.63
2018-01-13T23:27:48.036Z,16.47
2018-01-13T23:30:14.644Z,17.57
2018-01-13T23:32:41.248Z,19.57
2018-01-13T23:35:07.845Z,19.43
2018-01-13T23:37:34.465Z,19.47
2018-01-13T23:40:01.064Z,16.30
2018-01-13T23:42:27.663Z,17.10
2018-01-13T23:44:54.283Z,18.47
2018-01-13T23:47:20.887Z,18.07
2018-01-13T23:49:47.499Z,18.37
2018-01-13T23:52:14.131Z,17.07
2018-01-13T23:54:40.767Z,20.97
2018-01-13T23:57:07.364Z,14.73
2018-01-13T23:59:33.966Z,17.83
